sensor_id;sensor_type;location;lat;lon;timestamp;pressure;altitude;pressure_sealevel;temperature;humidity
19457;BME280;9867;48.094;11.478;2022-08-19T00:01:40;94660.25;;;18.24;100.00
19457;BME280;9867;48.094;11.478;2022-08-19T00:04:10;94676.41;;;18.36;100.00
19457;BME280;9867;48.094;11.478;2022-08-19T00:06:41;94671.22;;;18.36;100.00
19457;BME280;9867;48.094;11.478;2022-08-19T00:09:11;94669.94;;;18.39;100.00
19457;BME280;9867;48.094;11.478;2022-08-19T00:11:40;94681.34;;;18.43;100.00
19457;BME280;9867;48.094;11.478;2022-08-19T00:14:11;94683.16;;;18.42;100.00
19457;BME280;9867;48.094;11.478;2022-08-19T00:16:41;94672.78;;;18.37;100.00
19457;BME280;9867;48.094;11.478;2022-08-19T00:19:09;94660.84;;;18.36;100.00
19457;BME280;9867;48.094;11.478;2022-08-19T00:21:37;94638.22;;;18.37;100.00
19457;BME280;9867;48.094;11.478;2022-08-19T00:24:06;94634.78;;;18.06;100.00
19457;BME280;9867;48.094;11.478;2022-08-19T00:26:35;94620.72;;;17.97;100.00
19457;BME280;9867;48.094;11.478;2022-08-19T00:29:05;94619.69;;;17.98;100.00
19457;BME280;9867;48.094;11.478;2022-08-19T00:31:35;94617.34;;;18.01;100.00
19457;BME280;9867;48.094;11.478;2022-08-19T00:34:03;94611.88;;;17.98;100.00
19457;BME280;9867;48.094;11.478;2022-08-19T00:36:31;94626.94;;;17.96;100.00
19457;BME280;9867;48.094;11.478;2022-08-19T00:39:00;94624.91;;;18.03;100.00
19457;BME280;9867;48.094;11.478;2022-08-19T00:41:28;94627.56;;;18.18;100.00
19457;BME280;9867;48.094;11.478;2022-08-19T00:43:58;94630.44;;;18.32;100.00
19457;BME280;9867;48.094;11.478;2022-08-19T00:46:26;94621.88;;;18.47;100.00
19457;BME280;9867;48.094;11.478;2022-08-19T00:48:56;94621.09;;;18.46;100.00
19457;BME280;9867;48.094;11.478;2022-08-19T00:51:25;94604.97;;;18.44;100.00
19457;BME280;9867;48.094;11.478;2022-08-19T00:53:56;94606.25;;;18.26;100.00
19457;BME280;9867;48.094;11.478;2022-08-19T00:56:25;94593.25;;;18.21;100.00
19457;BME280;9867;48.094;11.478;2022-08-19T00:58:55;94595.63;;;18.28;100.00
19457;BME280;9867;48.094;11.478;2022-08-19T01:01:24;94601.31;;;18.25;100.00
19457;BME280;9867;48.094;11.478;2022-08-19T01:03:52;94606.31;;;18.42;100.00
19457;BME280;9867;48.094;11.478;2022-08-19T01:06:25;94617.41;;;18.22;100.00
19457;BME280;9867;48.094;11.478;2022-08-19T01:08:53;94599.78;;;18.19;100.00
19457;BME280;9867;48.094;11.478;2022-08-19T01:11:21;94595.84;;;18.21;100.00
19457;BME280;9867;48.094;11.478;2022-08-19T01:13:50;94587.56;;;18.29;100.00
19457;BME280;9867;48.094;11.478;2022-08-19T01:16:22;94599.50;;;18.25;100.00
19457;BME280;9867;48.094;11.478;2022-08-19T01:18:51;94596.34;;;18.08;100.00
19457;BME280;9867;48.094;11.478;2022-08-19T01:21:27;94596.06;;;17.99;100.00
19457;BME280;9867;48.094;11.478;2022-08-19T01:23:59;94603.59;;;18.01;100.00
19457;BME280;9867;48.094;11.478;2022-08-19T01:26:28;94607.28;;;18.10;100.00
19457;BME280;9867;48.094;11.478;2022-08-19T01:28:59;94612.47;;;18.20;100.00
19457;BME280;9867;48.094;11.478;2022-08-19T01:31:28;94620.25;;;18.20;100.00
19457;BME280;9867;48.094;11.478;2022-08-19T01:33:59;94630.13;;;18.23;100.00
19457;BME280;9867;48.094;11.478;2022-08-19T01:36:31;94641.06;;;18.25;100.00
19457;BME280;9867;48.094;11.478;2022-08-19T01:39:08;94637.66;;;18.20;100.00
19457;BME280;9867;48.094;11.478;2022-08-19T01:41:36;94635.84;;;18.20;100.00
19457;BME280;9867;48.094;11.478;2022-08-19T01:44:06;94635.06;;;18.25;100.00
19457;BME280;9867;48.094;11.478;2022-08-19T01:46:47;94647.28;;;18.29;100.00
19457;BME280;9867;48.094;11.478;2022-08-19T01:49:17;94660.28;;;18.29;100.00
19457;BME280;9867;48.094;11.478;2022-08-19T01:51:47;94654.84;;;18.36;100.00
19457;BME280;9867;48.094;11.478;2022-08-19T01:54:18;94660.56;;;18.33;100.00
19457;BME280;9867;48.094;11.478;2022-08-19T01:56:55;94655.56;;;18.21;100.00
19457;BME280;9867;48.094;11.478;2022-08-19T01:59:25;94657.41;;;18.21;100.00
19457;BME280;9867;48.094;11.478;2022-08-19T02:01:53;94652.19;;;18.21;100.00
19457;BME280;9867;48.094;11.478;2022-08-19T02:04:21;94645.44;;;18.15;100.00
19457;BME280;9867;48.094;11.478;2022-08-19T02:06:49;94641.81;;;18.16;100.00
19457;BME280;9867;48.094;11.478;2022-08-19T02:09:19;94648.31;;;18.23;100.00
19457;BME280;9867;48.094;11.478;2022-08-19T02:11:47;94651.41;;;18.10;100.00
19457;BME280;9867;48.094;11.478;2022-08-19T02:14:15;94658.94;;;18.12;100.00
19457;BME280;9867;48.094;11.478;2022-08-19T02:16:42;94655.03;;;18.09;100.00
19457;BME280;9867;48.094;11.478;2022-08-19T02:19:10;94659.72;;;18.12;100.00
19457;BME280;9867;48.094;11.478;2022-08-19T02:21:38;94661.28;;;18.13;100.00
19457;BME280;9867;48.094;11.478;2022-08-19T02:24:06;94665.19;;;18.21;100.00
19457;BME280;9867;48.094;11.478;2022-08-19T02:26:36;94671.16;;;18.21;100.00
19457;BME280;9867;48.094;11.478;2022-08-19T02:29:03;94671.69;;;18.18;100.00
19457;BME280;9867;48.094;11.478;2022-08-19T02:31:31;94678.72;;;18.28;100.00
19457;BME280;9867;48.094;11.478;2022-08-19T02:33:59;94675.84;;;18.24;100.00
19457;BME280;9867;48.094;11.478;2022-08-19T02:36:27;94672.72;;;18.22;100.00
19457;BME280;9867;48.094;11.478;2022-08-19T02:38:56;94664.41;;;18.15;100.00
19457;BME280;9867;48.094;11.478;2022-08-19T02:41:25;94652.72;;;18.13;100.00
19457;BME280;9867;48.094;11.478;2022-08-19T02:43:56;94633.44;;;17.98;100.00
19457;BME280;9867;48.094;11.478;2022-08-19T02:46:46;94609.81;;;18.00;100.00
19457;BME280;9867;48.094;11.478;2022-08-19T02:49:17;94598.41;;;17.91;100.00
19457;BME280;9867;48.094;11.478;2022-08-19T02:51:46;94588.00;;;17.86;100.00
19457;BME280;9867;48.094;11.478;2022-08-19T02:54:14;94591.88;;;17.83;100.00
19457;BME280;9867;48.094;11.478;2022-08-19T02:56:43;94583.81;;;17.80;100.00
19457;BME280;9867;48.094;11.478;2022-08-19T02:59:12;94577.03;;;17.73;100.00
19457;BME280;9867;48.094;11.478;2022-08-19T03:01:41;94579.16;;;17.82;100.00
19457;BME280;9867;48.094;11.478;2022-08-19T03:04:11;94591.34;;;17.81;100.00
19457;BME280;9867;48.094;11.478;2022-08-19T03:06:41;94591.91;;;17.88;100.00
19457;BME280;9867;48.094;11.478;2022-08-19T03:09:10;94610.38;;;18.07;100.00
19457;BME280;9867;48.094;11.478;2022-08-19T03:11:38;94620.22;;;18.05;100.00
19457;BME280;9867;48.094;11.478;2022-08-19T03:14:07;94623.84;;;18.04;100.00
19457;BME280;9867;48.094;11.478;2022-08-19T03:16:45;94617.41;;;18.12;100.00
19457;BME280;9867;48.094;11.478;2022-08-19T03:19:16;94616.34;;;18.08;100.00
19457;BME280;9867;48.094;11.478;2022-08-19T03:21:45;94619.94;;;17.96;100.00
19457;BME280;9867;48.094;11.478;2022-08-19T03:24:13;94636.88;;;18.14;100.00
19457;BME280;9867;48.094;11.478;2022-08-19T03:26:43;94649.91;;;18.29;100.00
19457;BME280;9867;48.094;11.478;2022-08-19T03:29:12;94653.28;;;18.35;100.00
19457;BME280;9867;48.094;11.478;2022-08-19T03:31:52;94657.97;;;18.43;100.00
19457;BME280;9867;48.094;11.478;2022-08-19T03:34:23;94646.50;;;18.24;100.00
19457;BME280;9867;48.094;11.478;2022-08-19T03:36:53;94643.91;;;18.29;100.00
19457;BME280;9867;48.094;11.478;2022-08-19T03:39:22;94644.47;;;18.41;100.00
19457;BME280;9867;48.094;11.478;2022-08-19T03:41:51;94640.53;;;18.23;100.00
19457;BME280;9867;48.094;11.478;2022-08-19T03:44:42;94624.34;;;17.96;100.00
19457;BME280;9867;48.094;11.478;2022-08-19T03:47:12;94619.88;;;17.76;100.00
19457;BME280;9867;48.094;11.478;2022-08-19T03:49:43;94617.00;;;17.67;100.00
19457;BME280;9867;48.094;11.478;2022-08-19T03:52:11;94617.03;;;17.83;100.00
19457;BME280;9867;48.094;11.478;2022-08-19T03:54:39;94619.16;;;17.96;100.00
19457;BME280;9867;48.094;11.478;2022-08-19T03:57:07;94625.97;;;18.12;100.00
19457;BME280;9867;48.094;11.478;2022-08-19T03:59:37;94625.22;;;18.27;100.00
19457;BME280;9867;48.094;11.478;2022-08-19T04:02:08;94625.75;;;18.34;100.00
19457;BME280;9867;48.094;11.478;2022-08-19T04:04:40;94621.88;;;18.36;100.00
19457;BME280;9867;48.094;11.478;2022-08-19T04:07:12;94623.16;;;18.29;100.00
19457;BME280;9867;48.094;11.478;2022-08-19T04:09:42;94613.78;;;18.28;100.00
19457;BME280;9867;48.094;11.478;2022-08-19T04:12:10;94605.22;;;18.17;100.00
19457;BME280;9867;48.094;11.478;2022-08-19T04:14:38;94610.66;;;18.11;100.00
19457;BME280;9867;48.094;11.478;2022-08-19T04:17:06;94616.88;;;18.15;100.00
19457;BME280;9867;48.094;11.478;2022-08-19T04:19:35;94624.19;;;18.33;100.00
19457;BME280;9867;48.094;11.478;2022-08-19T04:22:05;94631.47;;;18.46;100.00
19457;BME280;9867;48.094;11.478;2022-08-19T04:24:33;94642.41;;;18.48;100.00
19457;BME280;9867;48.094;11.478;2022-08-19T04:27:02;94637.47;;;18.57;100.00
19457;BME280;9867;48.094;11.478;2022-08-19T04:29:32;94650.47;;;18.52;100.00
19457;BME280;9867;48.094;11.478;2022-08-19T04:32:00;94650.78;;;18.65;100.00
19457;BME280;9867;48.094;11.478;2022-08-19T04:34:36;94654.16;;;18.61;100.00
19457;BME280;9867;48.094;11.478;2022-08-19T04:37:26;94661.91;;;18.56;100.00
19457;BME280;9867;48.094;11.478;2022-08-19T04:40:04;94667.88;;;18.51;100.00
19457;BME280;9867;48.094;11.478;2022-08-19T04:42:49;94667.31;;;18.44;100.00
19457;BME280;9867;48.094;11.478;2022-08-19T04:45:18;94676.94;;;18.49;100.00
19457;BME280;9867;48.094;11.478;2022-08-19T04:47:49;94676.69;;;18.50;100.00
19457;BME280;9867;48.094;11.478;2022-08-19T04:50:40;94676.41;;;18.47;100.00
19457;BME280;9867;48.094;11.478;2022-08-19T04:53:10;94679.06;;;18.57;100.00
19457;BME280;9867;48.094;11.478;2022-08-19T04:55:40;94677.25;;;18.57;100.00
19457;BME280;9867;48.094;11.478;2022-08-19T04:58:08;94690.47;;;18.56;100.00
19457;BME280;9867;48.094;11.478;2022-08-19T05:00:38;94685.28;;;18.56;100.00
19457;BME280;9867;48.094;11.478;2022-08-19T05:03:07;94687.06;;;18.40;100.00
19457;BME280;9867;48.094;11.478;2022-08-19T05:05:38;94693.81;;;18.36;100.00
19457;BME280;9867;48.094;11.478;2022-08-19T05:08:12;94700.03;;;18.35;100.00
19457;BME280;9867;48.094;11.478;2022-08-19T05:10:57;94700.31;;;18.38;100.00
19457;BME280;9867;48.094;11.478;2022-08-19T05:13:25;94706.03;;;18.40;100.00
19457;BME280;9867;48.094;11.478;2022-08-19T05:15:54;94694.63;;;18.42;100.00
19457;BME280;9867;48.094;11.478;2022-08-19T05:18:23;94689.91;;;18.44;100.00
19457;BME280;9867;48.094;11.478;2022-08-19T05:21:10;94698.81;;;18.58;100.00
19457;BME280;9867;48.094;11.478;2022-08-19T05:23:57;94707.16;;;18.60;100.00
19457;BME280;9867;48.094;11.478;2022-08-19T05:26:26;94697.72;;;18.49;100.00
19457;BME280;9867;48.094;11.478;2022-08-19T05:28:54;94689.69;;;18.50;100.00
19457;BME280;9867;48.094;11.478;2022-08-19T05:31:22;94688.91;;;18.55;100.00
19457;BME280;9867;48.094;11.478;2022-08-19T05:33:50;94680.56;;;18.42;100.00
19457;BME280;9867;48.094;11.478;2022-08-19T05:36:18;94678.78;;;18.53;100.00
19457;BME280;9867;48.094;11.478;2022-08-19T05:38:46;94673.38;;;18.60;100.00
19457;BME280;9867;48.094;11.478;2022-08-19T05:41:17;94675.44;;;18.68;100.00
19457;BME280;9867;48.094;11.478;2022-08-19T05:43:45;94674.16;;;18.76;100.00
19457;BME280;9867;48.094;11.478;2022-08-19T05:46:17;94664.03;;;18.79;100.00
19457;BME280;9867;48.094;11.478;2022-08-19T05:48:53;94670.53;;;18.82;100.00
19457;BME280;9867;48.094;11.478;2022-08-19T05:51:23;94657.28;;;18.78;100.00
19457;BME280;9867;48.094;11.478;2022-08-19T05:53:54;94682.75;;;18.81;100.00
19457;BME280;9867;48.094;11.478;2022-08-19T05:56:24;94667.41;;;18.90;100.00
19457;BME280;9867;48.094;11.478;2022-08-19T05:58:52;94678.59;;;18.95;100.00
19457;BME280;9867;48.094;11.478;2022-08-19T06:01:26;94676.00;;;18.95;100.00
19457;BME280;9867;48.094;11.478;2022-08-19T06:03:54;94695.50;;;18.88;100.00
19457;BME280;9867;48.094;11.478;2022-08-19T06:06:21;94672.38;;;18.86;100.00
19457;BME280;9867;48.094;11.478;2022-08-19T06:08:50;94680.94;;;18.97;100.00
19457;BME280;9867;48.094;11.478;2022-08-19T06:11:20;94681.72;;;18.92;100.00
19457;BME280;9867;48.094;11.478;2022-08-19T06:13:51;94693.94;;;18.92;100.00
19457;BME280;9867;48.094;11.478;2022-08-19T06:16:26;94704.09;;;18.88;100.00
19457;BME280;9867;48.094;11.478;2022-08-19T06:18:55;94691.84;;;18.73;100.00
19457;BME280;9867;48.094;11.478;2022-08-19T06:21:26;94703.81;;;18.85;100.00
19457;BME280;9867;48.094;11.478;2022-08-19T06:23:55;94694.47;;;18.89;100.00
19457;BME280;9867;48.094;11.478;2022-08-19T06:26:24;94712.16;;;18.87;100.00
19457;BME280;9867;48.094;11.478;2022-08-19T06:28:54;94721.22;;;18.94;100.00
19457;BME280;9867;48.094;11.478;2022-08-19T06:31:25;94710.56;;;18.96;100.00
19457;BME280;9867;48.094;11.478;2022-08-19T06:33:53;94707.97;;;18.91;100.00
19457;BME280;9867;48.094;11.478;2022-08-19T06:36:24;94707.47;;;18.89;100.00
19457;BME280;9867;48.094;11.478;2022-08-19T06:38:53;94697.31;;;18.82;100.00
19457;BME280;9867;48.094;11.478;2022-08-19T06:41:21;94701.72;;;18.82;100.00
19457;BME280;9867;48.094;11.478;2022-08-19T06:43:49;94706.41;;;18.90;100.00
19457;BME280;9867;48.094;11.478;2022-08-19T06:46:21;94698.88;;;18.93;100.00
19457;BME280;9867;48.094;11.478;2022-08-19T06:48:49;94699.13;;;18.97;100.00
19457;BME280;9867;48.094;11.478;2022-08-19T06:51:21;94695.50;;;18.98;100.00
19457;BME280;9867;48.094;11.478;2022-08-19T06:53:51;94697.06;;;19.04;100.00
19457;BME280;9867;48.094;11.478;2022-08-19T06:56:24;94700.97;;;19.06;100.00
19457;BME280;9867;48.094;11.478;2022-08-19T06:58:57;94691.06;;;19.14;100.00
19457;BME280;9867;48.094;11.478;2022-08-19T07:01:26;94686.94;;;19.02;100.00
19457;BME280;9867;48.094;11.478;2022-08-19T07:03:54;94685.34;;;18.96;100.00
19457;BME280;9867;48.094;11.478;2022-08-19T07:06:23;94678.59;;;19.00;100.00
19457;BME280;9867;48.094;11.478;2022-08-19T07:09:11;94679.41;;;19.11;100.00
19457;BME280;9867;48.094;11.478;2022-08-19T07:11:45;94669.00;;;19.01;100.00
19457;BME280;9867;48.094;11.478;2022-08-19T07:14:14;94662.75;;;18.97;100.00
19457;BME280;9867;48.094;11.478;2022-08-19T07:16:47;94662.50;;;18.83;100.00
19457;BME280;9867;48.094;11.478;2022-08-19T07:19:17;94657.56;;;19.07;100.00
19457;BME280;9867;48.094;11.478;2022-08-19T07:21:46;94652.63;;;19.11;100.00
19457;BME280;9867;48.094;11.478;2022-08-19T07:24:16;94651.81;;;19.15;100.00
19457;BME280;9867;48.094;11.478;2022-08-19T07:26:45;94651.81;;;19.30;100.00
19457;BME280;9867;48.094;11.478;2022-08-19T07:29:18;94657.78;;;19.51;100.00
19457;BME280;9867;48.094;11.478;2022-08-19T07:31:53;94657.22;;;19.49;100.00
19457;BME280;9867;48.094;11.478;2022-08-19T07:34:26;94658.00;;;19.50;100.00
19457;BME280;9867;48.094;11.478;2022-08-19T07:36:55;94663.72;;;19.72;100.00
19457;BME280;9867;48.094;11.478;2022-08-19T07:39:27;94669.16;;;19.81;100.00
19457;BME280;9867;48.094;11.478;2022-08-19T07:41:56;94668.41;;;19.65;100.00
19457;BME280;9867;48.094;11.478;2022-08-19T07:44:25;94674.16;;;19.41;100.00
19457;BME280;9867;48.094;11.478;2022-08-19T07:46:56;94665.03;;;19.44;100.00
19457;BME280;9867;48.094;11.478;2022-08-19T07:49:25;94675.47;;;19.29;100.00
19457;BME280;9867;48.094;11.478;2022-08-19T07:51:56;94669.72;;;19.42;100.00
19457;BME280;9867;48.094;11.478;2022-08-19T07:54:26;94688.13;;;19.96;100.00
19457;BME280;9867;48.094;11.478;2022-08-19T07:56:55;94695.28;;;20.30;100.00
19457;BME280;9867;48.094;11.478;2022-08-19T07:59:23;94701.22;;;20.46;100.00
19457;BME280;9867;48.094;11.478;2022-08-19T08:01:53;94689.78;;;20.31;100.00
19457;BME280;9867;48.094;11.478;2022-08-19T08:04:22;94699.22;;;20.22;100.00
19457;BME280;9867;48.094;11.478;2022-08-19T08:07:07;94701.50;;;20.44;100.00
19457;BME280;9867;48.094;11.478;2022-08-19T08:09:57;94714.50;;;20.49;100.00
19457;BME280;9867;48.094;11.478;2022-08-19T08:12:31;94706.00;;;20.18;100.00
19457;BME280;9867;48.094;11.478;2022-08-19T08:15:05;94704.31;;;19.73;100.00
19457;BME280;9867;48.094;11.478;2022-08-19T08:17:39;94702.25;;;19.45;100.00
19457;BME280;9867;48.094;11.478;2022-08-19T08:20:15;94701.75;;;19.53;100.00
19457;BME280;9867;48.094;11.478;2022-08-19T08:22:45;94692.38;;;19.52;100.00
19457;BME280;9867;48.094;11.478;2022-08-19T08:25:31;94690.06;;;19.30;100.00
19457;BME280;9867;48.094;11.478;2022-08-19T08:28:01;94688.75;;;19.22;100.00
19457;BME280;9867;48.094;11.478;2022-08-19T08:30:30;94691.09;;;19.24;100.00
19457;BME280;9867;48.094;11.478;2022-08-19T08:33:01;94687.44;;;19.20;100.00
19457;BME280;9867;48.094;11.478;2022-08-19T08:35:29;94687.19;;;19.31;100.00
19457;BME280;9867;48.094;11.478;2022-08-19T08:37:57;94691.34;;;19.32;100.00
19457;BME280;9867;48.094;11.478;2022-08-19T08:40:29;94687.69;;;19.18;100.00
19457;BME280;9867;48.094;11.478;2022-08-19T08:43:03;94685.34;;;19.22;100.00
19457;BME280;9867;48.094;11.478;2022-08-19T08:45:42;94691.88;;;19.29;100.00
19457;BME280;9867;48.094;11.478;2022-08-19T08:48:37;94711.91;;;19.34;100.00
19457;BME280;9867;48.094;11.478;2022-08-19T08:51:10;94719.16;;;19.22;100.00
19457;BME280;9867;48.094;11.478;2022-08-19T08:53:46;94711.38;;;19.27;100.00
19457;BME280;9867;48.094;11.478;2022-08-19T08:56:21;94715.00;;;19.26;100.00
19457;BME280;9867;48.094;11.478;2022-08-19T08:58:56;94712.41;;;19.16;100.00
19457;BME280;9867;48.094;11.478;2022-08-19T09:01:26;94703.31;;;19.13;100.00
19457;BME280;9867;48.094;11.478;2022-08-19T09:03:57;94713.72;;;19.13;100.00
19457;BME280;9867;48.094;11.478;2022-08-19T09:06:40;94714.25;;;19.30;100.00
19457;BME280;9867;48.094;11.478;2022-08-19T09:09:16;94713.47;;;19.30;100.00
19457;BME280;9867;48.094;11.478;2022-08-19T09:11:56;94719.69;;;19.39;100.00
19457;BME280;9867;48.094;11.478;2022-08-19T09:14:37;94713.69;;;19.43;100.00
19457;BME280;9867;48.094;11.478;2022-08-19T09:17:19;94718.41;;;19.36;100.00
19457;BME280;9867;48.094;11.478;2022-08-19T09:20:01;94711.38;;;19.17;100.00
19457;BME280;9867;48.094;11.478;2022-08-19T09:22:35;94700.72;;;19.08;100.00
19457;BME280;9867;48.094;11.478;2022-08-19T09:25:05;94698.63;;;19.15;100.00
19457;BME280;9867;48.094;11.478;2022-08-19T09:27:37;94693.97;;;19.12;100.00
19457;BME280;9867;48.094;11.478;2022-08-19T09:30:12;94693.44;;;19.10;100.00
19457;BME280;9867;48.094;11.478;2022-08-19T09:32:41;94693.94;;;19.17;100.00
19457;BME280;9867;48.094;11.478;2022-08-19T09:35:12;94696.03;;;19.20;100.00
19457;BME280;9867;48.094;11.478;2022-08-19T09:37:41;94692.41;;;19.11;100.00
19457;BME280;9867;48.094;11.478;2022-08-19T09:40:13;94685.38;;;19.12;100.00
19457;BME280;9867;48.094;11.478;2022-08-19T09:42:42;94690.31;;;19.28;100.00
19457;BME280;9867;48.094;11.478;2022-08-19T09:45:17;94692.91;;;19.33;100.00
19457;BME280;9867;48.094;11.478;2022-08-19T09:47:47;94697.06;;;18.94;100.00
19457;BME280;9867;48.094;11.478;2022-08-19T09:50:17;94703.03;;;19.20;100.00
19457;BME280;9867;48.094;11.478;2022-08-19T09:52:45;94702.53;;;19.23;100.00
19457;BME280;9867;48.094;11.478;2022-08-19T09:55:24;94697.31;;;19.43;100.00
19457;BME280;9867;48.094;11.478;2022-08-19T09:57:59;94698.38;;;19.57;100.00
19457;BME280;9867;48.094;11.478;2022-08-19T10:00:27;94709.28;;;19.49;100.00
19457;BME280;9867;48.094;11.478;2022-08-19T10:02:56;94714.25;;;19.35;100.00
19457;BME280;9867;48.094;11.478;2022-08-19T10:05:26;94721.78;;;19.32;100.00
19457;BME280;9867;48.094;11.478;2022-08-19T10:08:16;94719.72;;;19.59;100.00
19457;BME280;9867;48.094;11.478;2022-08-19T10:10:47;94722.28;;;19.80;100.00
19457;BME280;9867;48.094;11.478;2022-08-19T10:13:20;94719.06;;;20.08;100.00
19457;BME280;9867;48.094;11.478;2022-08-19T10:15:53;94720.94;;;19.92;100.00
19457;BME280;9867;48.094;11.478;2022-08-19T10:18:22;94716.31;;;19.64;100.00
19457;BME280;9867;48.094;11.478;2022-08-19T10:20:52;94710.03;;;19.80;100.00
19457;BME280;9867;48.094;11.478;2022-08-19T10:23:29;94707.88;;;20.07;100.00
19457;BME280;9867;48.094;11.478;2022-08-19T10:25:59;94707.03;;;20.27;100.00
19457;BME280;9867;48.094;11.478;2022-08-19T10:28:27;94729.16;;;20.30;100.00
19457;BME280;9867;48.094;11.478;2022-08-19T10:30:55;94727.13;;;20.76;100.00
19457;BME280;9867;48.094;11.478;2022-08-19T10:33:23;94738.25;;;20.92;100.00
19457;BME280;9867;48.094;11.478;2022-08-19T10:36:15;94734.72;;;20.67;100.00
19457;BME280;9867;48.094;11.478;2022-08-19T10:38:46;94726.59;;;21.23;100.00
19457;BME280;9867;48.094;11.478;2022-08-19T10:41:23;94738.97;;;21.70;100.00
19457;BME280;9867;48.094;11.478;2022-08-19T10:43:52;94749.69;;;22.22;100.00
19457;BME280;9867;48.094;11.478;2022-08-19T10:46:29;94756.09;;;21.82;100.00
19457;BME280;9867;48.094;11.478;2022-08-19T10:48:59;94761.75;;;21.94;100.00
19457;BME280;9867;48.094;11.478;2022-08-19T10:51:30;94749.78;;;21.88;100.00
19457;BME280;9867;48.094;11.478;2022-08-19T10:54:16;94743.66;;;21.97;100.00
19457;BME280;9867;48.094;11.478;2022-08-19T10:56:59;94746.53;;;22.01;100.00
19457;BME280;9867;48.094;11.478;2022-08-19T10:59:28;94744.84;;;21.52;100.00
19457;BME280;9867;48.094;11.478;2022-08-19T11:02:03;94733.22;;;21.39;100.00
19457;BME280;9867;48.094;11.478;2022-08-19T11:04:31;94744.84;;;21.18;100.00
19457;BME280;9867;48.094;11.478;2022-08-19T11:07:03;94742.78;;;21.15;100.00
19457;BME280;9867;48.094;11.478;2022-08-19T11:09:38;94739.78;;;20.98;100.00
19457;BME280;9867;48.094;11.478;2022-08-19T11:12:07;94740.34;;;20.90;100.00
19457;BME280;9867;48.094;11.478;2022-08-19T11:14:37;94729.13;;;21.28;100.00
19457;BME280;9867;48.094;11.478;2022-08-19T11:17:05;94741.97;;;21.25;100.00
19457;BME280;9867;48.094;11.478;2022-08-19T11:19:33;94731.03;;;20.79;100.00
19457;BME280;9867;48.094;11.478;2022-08-19T11:22:03;94721.66;;;20.77;100.00
19457;BME280;9867;48.094;11.478;2022-08-19T11:24:35;94723.88;;;20.50;100.00
19457;BME280;9867;48.094;11.478;2022-08-19T11:27:06;94715.31;;;20.45;100.00
19457;BME280;9867;48.094;11.478;2022-08-19T11:29:38;94727.03;;;20.42;100.00
19457;BME280;9867;48.094;11.478;2022-08-19T11:32:09;94734.63;;;20.88;100.00
19457;BME280;9867;48.094;11.478;2022-08-19T11:34:37;94742.50;;;20.77;100.00
19457;BME280;9867;48.094;11.478;2022-08-19T11:37:07;94734.22;;;21.04;100.00
19457;BME280;9867;48.094;11.478;2022-08-19T11:39:38;94745.41;;;21.10;100.00
19457;BME280;9867;48.094;11.478;2022-08-19T11:42:07;94738.81;;;20.84;100.00
19457;BME280;9867;48.094;11.478;2022-08-19T11:44:49;94750.78;;;20.85;100.00
19457;BME280;9867;48.094;11.478;2022-08-19T11:47:19;94743.72;;;20.90;100.00
19457;BME280;9867;48.094;11.478;2022-08-19T11:49:47;94747.84;;;21.40;100.00
19457;BME280;9867;48.094;11.478;2022-08-19T11:52:16;94743.97;;;21.67;100.00
19457;BME280;9867;48.094;11.478;2022-08-19T11:54:44;94738.59;;;21.53;100.00
19457;BME280;9867;48.094;11.478;2022-08-19T11:57:13;94750.22;;;21.37;100.00
19457;BME280;9867;48.094;11.478;2022-08-19T11:59:50;94738.34;;;21.16;100.00
19457;BME280;9867;48.094;11.478;2022-08-19T12:02:19;94740.56;;;20.49;100.00
19457;BME280;9867;48.094;11.478;2022-08-19T12:04:48;94739.28;;;20.31;100.00
19457;BME280;9867;48.094;11.478;2022-08-19T12:07:18;94742.00;;;20.06;100.00
19457;BME280;9867;48.094;11.478;2022-08-19T12:09:46;94747.47;;;20.04;100.00
19457;BME280;9867;48.094;11.478;2022-08-19T12:12:14;94746.72;;;19.94;100.00
19457;BME280;9867;48.094;11.478;2022-08-19T12:14:42;94739.69;;;19.94;100.00
19457;BME280;9867;48.094;11.478;2022-08-19T12:17:11;94745.13;;;20.03;100.00
19457;BME280;9867;48.094;11.478;2022-08-19T12:19:39;94750.81;;;20.15;100.00
19457;BME280;9867;48.094;11.478;2022-08-19T12:22:07;94755.44;;;20.33;100.00
19457;BME280;9867;48.094;11.478;2022-08-19T12:24:37;94754.03;;;20.66;100.00
19457;BME280;9867;48.094;11.478;2022-08-19T12:27:05;94760.63;;;20.54;100.00
19457;BME280;9867;48.094;11.478;2022-08-19T12:29:38;94753.75;;;20.68;100.00
19457;BME280;9867;48.094;11.478;2022-08-19T12:32:06;94762.13;;;21.09;100.00
19457;BME280;9867;48.094;11.478;2022-08-19T12:34:37;94767.75;;;21.26;100.00
19457;BME280;9867;48.094;11.478;2022-08-19T12:37:06;94788.94;;;21.25;100.00
19457;BME280;9867;48.094;11.478;2022-08-19T12:39:38;94776.38;;;21.27;100.00
19457;BME280;9867;48.094;11.478;2022-08-19T12:42:07;94784.03;;;21.08;100.00
19457;BME280;9867;48.094;11.478;2022-08-19T12:44:36;94771.47;;;21.15;100.00
19457;BME280;9867;48.094;11.478;2022-08-19T12:47:09;94780.00;;;20.82;100.00
19457;BME280;9867;48.094;11.478;2022-08-19T12:49:38;94764.22;;;20.58;100.00
19457;BME280;9867;48.094;11.478;2022-08-19T12:52:22;94772.94;;;20.87;100.00
19457;BME280;9867;48.094;11.478;2022-08-19T12:54:51;94794.56;;;20.93;100.00
19457;BME280;9867;48.094;11.478;2022-08-19T12:57:21;94785.56;;;21.14;100.00
19457;BME280;9867;48.094;11.478;2022-08-19T12:59:59;94788.63;;;21.94;100.00
19457;BME280;9867;48.094;11.478;2022-08-19T13:02:31;94793.41;;;21.53;100.00
19457;BME280;9867;48.094;11.478;2022-08-19T13:05:06;94793.38;;;21.24;100.00
19457;BME280;9867;48.094;11.478;2022-08-19T13:07:35;94802.00;;;21.59;100.00
19457;BME280;9867;48.094;11.478;2022-08-19T13:10:09;94806.88;;;21.70;100.00
19457;BME280;9867;48.094;11.478;2022-08-19T13:12:37;94800.34;;;22.02;100.00